EW9449 Weather Reports


Display with metric or nautical units.
time (UTC)temp
F
wind
direction
speed
MPH
gust
MPH
rain 1hr
in
rain 24hr
in
rain mn
in
humidity
%
barometer
mb
20220529091518 50 45 2.0 5.0 0.02 0.09 0.02 82 999.9
20220529090519 50 45 3.0 9.0 0.01 0.08 0.01 81 999.7
20220529085518 50 68 2.0 4.0 0.01 0.08 0.01 80 1000.0
20220529084518 49 0.0 0.0 0.00 0.07 0.00 78 1000.7
20220529083519 49 0.0 3.0 0.00 0.07 0.00 78 1000.0
20220529082518 50 0.0 2.0 0.00 0.07 0.00 78 1000.3
20220529081518 50 0.0 0.0 0.00 0.07 0.00 78 1000.5
20220529080518 50 0.0 2.0 0.00 0.07 0.00 79 1000.6
20220529075518 51 0.0 1.0 0.00 0.07 0.00 78 1000.4
20220529074518 52 0.0 0.0 0.00 0.07 0.00 77 1000.5
20220529073518 53 0.0 0.0 0.00 0.07 0.00 75 1000.1
20220529072518 53 0.0 3.0 0.00 0.07 0.00 75 1000.4
20220529071519 53 0.0 0.0 0.00 0.07 0.00 73 999.9
20220529070518 53 0.0 0.0 0.00 0.07 0.00 72 1000.0
20220529065518 53 90 1.0 6.0 0.00 0.07 0.00 72 1000.2
20220529064518 52 90 2.0 5.0 0.00 0.07 0.00 73 1000.7
20220529063518 52 90 3.0 8.0 0.00 0.07 0.00 74 1000.6
20220529062518 51 45 1.0 5.0 0.00 0.07 0.00 75 1001.2
20220529061518 51 0.0 0.0 0.00 0.07 0.00 75 1000.7
20220529060518 51 0.0 0.0 0.00 0.07 0.00 74 1000.5
20220529055519 51 0.0 0.0 0.00 0.07 0.07 73 1000.3
20220529054520 51 0.0 0.0 0.00 0.07 0.07 74 1000.1
20220529053519 52 0.0 0.0 0.00 0.07 0.07 73 1000.1
20220529052519 52 0.0 0.0 0.00 0.07 0.07 73 1000.4
20220529051519 52 0.0 0.0 0.00 0.07 0.07 72 1000.6
20220529050518 52 0.0 0.0 0.00 0.07 0.07 71 1000.6
20220529045519 52 0.0 0.0 0.00 0.07 0.07 71 1000.5
20220529044519 53 0.0 0.0 0.00 0.07 0.07 71 1000.6
20220529043519 53 0.0 0.0 0.00 0.07 0.07 71 1001.1
20220529042519 53 0.0 0.0 0.00 0.07 0.07 71 1001.3
20220529041519 53 0.0 0.0 0.00 0.07 0.07 71 1001.8
20220529040519 53 0.0 0.0 0.00 0.07 0.07 70 1001.8
20220529035519 54 0.0 0.0 0.00 0.07 0.07 69 1001.8
20220529034519 55 0.0 0.0 0.00 0.07 0.07 67 1002.0
20220529033519 55 0.0 0.0 0.00 0.07 0.07 67 1002.7
20220529032518 56 0.0 0.0 0.00 0.07 0.07 66 1003.2
20220529031519 57 0.0 0.0 0.00 0.07 0.07 65 1003.1
20220529030519 58 0.0 0.0 0.00 0.07 0.07 63 1003.6
20220529025518 59 0.0 0.0 0.00 0.07 0.07 61 1004.0
20220529024518 61 0.0 0.0 0.00 0.07 0.07 57 1004.0
20220529023519 61 0.0 0.0 0.00 0.07 0.07 55 1004.3
20220529022518 63 0.0 0.0 0.00 0.07 0.07 53 1004.7
20220529021518 64 0.0 0.0 0.00 0.07 0.07 49 1004.7
20220529020518 64 0.0 0.0 0.00 0.07 0.07 50 1004.7
20220529015519 65 0.0 0.0 0.00 0.07 0.07 49 1004.6
20220529014518 65 0.0 2.0 0.00 0.07 0.07 48 1004.7
20220529012519 66 0.0 2.0 0.00 0.07 0.07 44 1004.9
20220529011519 66 0.0 0.0 0.00 0.07 0.07 45 1005.0
20220529010518 66 293 2.0 4.0 0.00 0.07 0.07 44 1005.1
20220529005518 67 293 1.0 3.0 0.00 0.07 0.07 44 1005.3
20220529004519 67 293 1.0 4.0 0.00 0.07 0.07 44 1005.9
20220529003518 67 293 2.0 4.0 0.00 0.07 0.07 44 1005.8
20220529002518 66 0.0 1.0 0.00 0.07 0.07 44 1005.9
20220529001518 66 293 2.0 5.0 0.00 0.07 0.07 45 1005.9
20220529000518 67 270 2.0 6.0 0.00 0.07 0.07 45 1006.2
20220528235519 67 293 2.0 7.0 0.00 0.07 0.07 43 1006.2
20220528234518 68 293 1.0 4.0 0.00 0.07 0.07 42 1006.6
20220528233518 67 293 1.0 7.0 0.00 0.07 0.07 44 1006.4
20220528232518 68 270 1.0 4.0 0.00 0.07 0.07 44 1007.0
20220528231519 67 270 1.0 3.0 0.00 0.07 0.07 47 1007.0
20220528230518 68 270 1.0 3.0 0.00 0.07 0.07 46 1007.1
20220528225518 65 270 1.0 2.0 0.00 0.07 0.07 50 1006.9
20220528224518 66 270 1.0 4.0 0.00 0.07 0.07 50 1006.9
20220528223518 65 0.0 3.0 0.00 0.07 0.07 54 1007.1
20220528222518 67 270 1.0 3.0 0.00 0.07 0.07 54 1007.4
20220528221518 63 270 1.0 4.0 0.00 0.07 0.07 63 1007.3
20220528220518 63 338 1.0 3.0 0.00 0.07 0.07 63 1007.6
20220528215518 59 338 1.0 3.0 0.00 0.07 0.07 72 1007.0
20220528214518 57 338 1.0 4.0 0.00 0.07 0.07 73 1006.7
20220528213518 56 0.0 0.0 0.00 0.07 0.07 77 1006.9
20220528212518 55 0.0 0.0 0.00 0.07 0.07 79 1006.7
20220528211518 54 0.0 0.0 0.00 0.07 0.07 80 1006.8
20220528210518 54 0.0 0.0 0.00 0.07 0.07 79 1006.8
20220528205518 54 0.0 0.0 0.00 0.07 0.07 78 1006.7
20220528204518 55 0.0 0.0 0.00 0.07 0.07 81 1006.7
20220528203518 54 0.0 0.0 0.00 0.07 0.07 81 1006.7
20220528202518 54 0.0 0.0 0.00 0.07 0.07 80 1006.7
20220528201517 54 0.0 2.0 0.01 0.07 0.07 81 1006.7
20220528200517 54 0.0 3.0 0.01 0.07 0.07 81 1006.7
20220528195518 54 0.0 0.0 0.01 0.07 0.07 80 1006.7
20220528194518 54 0.0 0.0 0.01 0.07 0.07 80 1007.1
20220528193518 54 23 1.0 3.0 0.01 0.07 0.07 81 1007.2
20220528192517 54 0.0 0.0 0.01 0.07 0.07 82 1007.2
20220528191517 54 0.0 0.0 0.00 0.06 0.06 79 1007.1
20220528190518 54 23 1.0 3.0 0.01 0.06 0.06 80 1007.4
20220528185518 54 0.0 0.0 0.01 0.06 0.06 82 1007.4
20220528184517 54 0.0 3.0 0.03 0.06 0.06 81 1007.5
20220528183517 54 0.0 0.0 0.04 0.06 0.06 81 1007.5
20220528182517 54 0.0 1.0 0.05 0.06 0.06 83 1007.5
20220528181518 54 0.0 4.0 0.06 0.06 0.06 84 1007.6
20220528180517 53 0 1.0 4.0 0.05 0.05 0.05 86 1007.6
20220528175517 53 0.0 3.0 0.05 0.05 0.05 85 1007.6
20220528174518 52 0.0 3.0 0.03 0.03 0.03 84 1007.6
20220528173518 52 0.0 3.0 0.02 0.02 0.02 81 1007.9
20220528172519 53 0.0 3.0 0.01 0.01 0.01 78 1007.8
20220528171517 54 0.0 3.0 0.00 0.00 0.00 74 1007.8
20220528170518 54 270 1.0 4.0 0.00 0.00 0.00 72 1007.6
20220528165518 54 270 1.0 6.0 0.00 0.00 0.00 70 1007.5
20220528164519 55 270 1.0 6.0 0.00 0.00 0.00 70 1007.5
20220528163518 55 248 1.0 7.0 0.00 0.00 0.00 70 1007.1
20220528162517 56 293 1.0 4.0 0.00 0.00 0.00 69 1007.5
20220528161517 57 0.0 3.0 0.00 0.00 0.00 68 1007.2
20220528160519 57 293 1.0 8.0 0.00 0.00 0.00 67 1006.8
20220528155519 56 293 1.0 3.0 0.00 0.00 0.00 67 1006.8
20220528154517 57 293 1.0 8.0 0.00 0.00 0.00 66 1006.8
20220528153519 57 293 2.0 5.0 0.00 0.00 0.00 64 1007.1
20220528152519 58 270 2.0 6.0 0.00 0.00 0.00 63 1006.9
20220528151519 59 293 2.0 9.0 0.00 0.00 0.00 61 1006.6
20220528150517 59 0.0 0.0 0.00 0.00 0.00 61 1006.8
20220528145519 59 270 2.0 8.0 0.00 0.00 0.00 60 1006.7
20220528144519 59 270 1.0 4.0 0.00 0.00 0.00 59 1007.0
20220528143519 59 270 1.0 7.0 0.00 0.00 0.00 59 1006.9
20220528142519 59 0.0 0.0 0.00 0.00 0.00 60 1007.2
20220528141519 59 0.0 0.0 0.00 0.00 0.00 60 1006.7
20220528140519 58 0.0 0.0 0.00 0.00 0.00 61 1006.7
20220528135519 58 0.0 3.0 0.00 0.00 0.00 61 1007.4
20220528134519 58 0.0 0.0 0.00 0.00 0.00 59 1007.3
20220528133519 59 0.0 0.0 0.00 0.00 0.00 59 1007.3
20220528132519 59 0.0 0.0 0.00 0.00 0.00 57 1007.3
20220528131519 59 0.0 0.0 0.00 0.00 0.00 57 1007.6
20220528130519 59 0.0 0.0 0.00 0.00 0.00 56 1007.9
20220528125519 59 0.0 0.0 0.00 0.00 0.00 56 1008.1
20220528124519 59 270 1.0 7.0 0.00 0.00 0.00 55 1008.3
20220528123518 59 248 1.0 7.0 0.00 0.00 0.00 55 1008.0
20220528122602 59 248 1.0 4.0 0.00 0.00 0.00 57 1007.9
20220528121519 59 0.0 0.0 0.00 0.00 0.00 57 1007.1
20220528120519 60 0.0 0.0 0.00 0.00 0.00 56 1006.9
20220528115519 60 0.0 0.0 0.00 0.00 0.00 56 1007.2
20220528114519 60 0.0 0.0 0.00 0.00 0.00 55 1007.0
20220528113518 60 0.0 0.0 0.00 0.00 0.00 54 1006.9
20220528112519 61 0.0 0.0 0.00 0.00 0.00 53 1007.1
20220528111518 61 0.0 0.0 0.00 0.00 0.00 53 1006.8
20220528110518 61 0.0 0.0 0.00 0.00 0.00 53 1006.2
20220528105519 61 0.0 2.0 0.00 0.00 0.00 52 1006.3
20220528104518 61 0.0 2.0 0.00 0.00 0.00 51 1006.3
20220528103518 61 0.0 0.0 0.00 0.00 0.00 51 1005.8
20220528102518 61 0.0 0.0 0.00 0.00 0.00 49 1005.8
20220528101518 62 0.0 0.0 0.00 0.00 0.00 49 1005.9
20220528100519 62 0.0 0.0 0.00 0.00 0.00 48 1005.6
20220528095519 62 0.0 0.0 0.00 0.00 0.00 48 1005.5
20220528094518 62 0.0 0.0 0.00 0.00 0.00 49 1005.3
20220528093519 62 0.0 0.0 0.00 0.00 0.00 49 1006.0
20220528092518 62 0.0 0.0 0.00 0.00 0.00 50 1006.1